Time,TemperatureF,DewpointF,PressureIn,WindDirection,WindDirectionDegrees,WindSpeedMPH,WindSpeedGustMPH,Humidity,HourlyPrecipIn,Conditions,Clouds,dailyrainin,SoftwareType,DateUTC
2013-02-19 00:00:00,9.0,-4.0,-100.00,SW,220,15.0,25.0,54,-99.99,,,-99.99,,2013-02-19 07:00:00,
2013-02-19 00:42:00,9.0,-4.0,-100.00,SW,220,15.0,25.0,54,-99.99,,,-99.99,,2013-02-19 07:42:00,
2013-02-19 00:52:00,9.0,-4.0,-100.00,SW,220,15.0,25.0,54,-99.99,,,-99.99,,2013-02-19 07:52:00,
2013-02-19 01:00:00,9.0,-4.0,-100.00,SW,217,14.0,19.0,52,-99.99,,,-99.99,,2013-02-19 08:00:00,
2013-02-19 01:42:00,9.0,-4.0,-100.00,SW,217,14.0,19.0,52,-99.99,,,-99.99,,2013-02-19 08:42:00,
2013-02-19 01:52:00,9.0,-4.0,-100.00,SW,217,14.0,19.0,52,-99.99,,,-99.99,,2013-02-19 08:52:00,
2013-02-19 02:00:00,11.0,-8.0,-100.00,SW,217,14.0,20.0,41,-99.99,,,-99.99,,2013-02-19 09:00:00,
2013-02-19 02:42:00,11.0,-8.0,-100.00,SW,217,14.0,20.0,41,-99.99,,,-99.99,,2013-02-19 09:42:00,
2013-02-19 02:53:00,11.0,-8.0,-100.00,SW,217,14.0,20.0,41,-99.99,,,-99.99,,2013-02-19 09:53:00,
2013-02-19 03:00:00,14.0,-28.0,-100.00,SW,225,13.0,19.0,13,-99.99,,,-99.99,,2013-02-19 10:00:00,
2013-02-19 03:42:00,14.0,-28.0,-100.00,SW,225,13.0,19.0,13,-99.99,,,-99.99,,2013-02-19 10:42:00,
2013-02-19 03:52:00,14.0,-28.0,-100.00,SW,225,13.0,19.0,13,-99.99,,,-99.99,,2013-02-19 10:52:00,
2013-02-19 04:00:00,12.0,-27.0,-100.00,SW,224,13.0,19.0,14,-99.99,,,-99.99,,2013-02-19 11:00:00,
2013-02-19 04:42:00,12.0,-27.0,-100.00,SW,224,13.0,19.0,14,-99.99,,,-99.99,,2013-02-19 11:42:00,
2013-02-19 04:52:00,12.0,-27.0,-100.00,SW,224,13.0,19.0,14,-99.99,,,-99.99,,2013-02-19 11:52:00,
2013-02-19 05:00:00,11.0,-30.0,-100.00,SW,220,16.0,23.0,13,-99.99,,,-99.99,,2013-02-19 12:00:00,
2013-02-19 05:42:00,11.0,-30.0,-100.00,SW,220,16.0,23.0,13,-99.99,,,-99.99,,2013-02-19 12:42:00,
2013-02-19 05:52:00,11.0,-30.0,-100.00,SW,220,16.0,23.0,13,-99.99,,,-99.99,,2013-02-19 12:52:00,
2013-02-19 06:00:00,11.0,-34.0,-100.00,SW,220,13.0,21.0,10,-99.99,,,-99.99,,2013-02-19 13:00:00,
2013-02-19 06:42:00,11.0,-34.0,-100.00,SW,220,13.0,21.0,10,-99.99,,,-99.99,,2013-02-19 13:42:00,
2013-02-19 06:52:00,11.0,-34.0,-100.00,SW,220,13.0,21.0,10,-99.99,,,-99.99,,2013-02-19 13:52:00,
2013-02-19 07:00:00,11.0,-38.0,-100.00,SW,226,14.0,23.0,8,-99.99,,,-99.99,,2013-02-19 14:00:00,
2013-02-19 07:42:00,11.0,-38.0,-100.00,SW,226,14.0,23.0,8,-99.99,,,-99.99,,2013-02-19 14:42:00,
2013-02-19 07:52:00,11.0,-38.0,-100.00,SW,226,14.0,23.0,8,-99.99,,,-99.99,,2013-02-19 14:52:00,
2013-02-19 08:00:00,12.0,-39.0,-100.00,SW,229,15.0,24.0,7,-99.99,,,-99.99,,2013-02-19 15:00:00,
2013-02-19 08:42:00,12.0,-39.0,-100.00,SW,229,15.0,24.0,7,-99.99,,,-99.99,,2013-02-19 15:42:00,
2013-02-19 08:52:00,12.0,-39.0,-100.00,SW,229,15.0,24.0,7,-99.99,,,-99.99,,2013-02-19 15:52:00,
2013-02-19 09:00:00,14.0,-99.9,-100.00,SW,220,18.0,28.0,6,-99.99,,,-99.99,,2013-02-19 16:00:00,
2013-02-19 09:42:00,14.0,-40.0,-100.00,SW,220,18.0,28.0,6,-99.99,,,-99.99,,2013-02-19 16:42:00,
2013-02-19 09:52:00,14.0,-40.0,-100.00,SW,220,18.0,28.0,6,-99.99,,,-99.99,,2013-02-19 16:52:00,
2013-02-19 10:00:00,16.0,-99.9,-100.00,SW,218,19.0,33.0,13,-99.99,,,-99.99,,2013-02-19 17:00:00,
2013-02-19 10:42:00,16.0,-25.0,-100.00,SW,218,19.0,33.0,13,-99.99,,,-99.99,,2013-02-19 17:42:00,
2013-02-19 10:52:00,16.0,-25.0,-100.00,SW,218,19.0,33.0,13,-99.99,,,-99.99,,2013-02-19 17:52:00,
2013-02-19 11:00:00,18.0,-14.0,-100.00,SW,223,19.0,33.0,22,-99.99,,,-99.99,,2013-02-19 18:00:00,
2013-02-19 11:42:00,18.0,-14.0,-100.00,SW,223,19.0,33.0,22,-99.99,,,-99.99,,2013-02-19 18:42:00,
2013-02-19 11:52:00,18.0,-14.0,-100.00,SW,223,19.0,33.0,22,-99.99,,,-99.99,,2013-02-19 18:52:00,
2013-02-19 12:00:00,18.0,-5.0,-100.00,SW,225,20.0,40.0,34,-99.99,,,-99.99,,2013-02-19 19:00:00,
2013-02-19 12:42:00,18.0,-5.0,-100.00,SW,225,20.0,40.0,34,-99.99,,,-99.99,,2013-02-19 19:42:00,
2013-02-19 12:52:00,18.0,-5.0,-100.00,SW,225,20.0,40.0,34,-99.99,,,-99.99,,2013-02-19 19:52:00,
2013-02-19 13:00:00,20.0,-5.0,-100.00,SW,218,19.0,39.0,33,-99.99,,,-99.99,,2013-02-19 20:00:00,
2013-02-19 13:42:00,20.0,-5.0,-100.00,SW,218,19.0,39.0,33,-99.99,,,-99.99,,2013-02-19 20:42:00,
2013-02-19 13:52:00,20.0,-5.0,-100.00,SW,218,19.0,39.0,33,-99.99,,,-99.99,,2013-02-19 20:52:00,
2013-02-19 14:00:00,20.0,-3.0,-100.00,SW,223,19.0,37.0,34,-99.99,,,-99.99,,2013-02-19 21:00:00,
2013-02-19 14:42:00,20.0,-3.0,-100.00,SW,223,19.0,37.0,34,-99.99,,,-99.99,,2013-02-19 21:42:00,
2013-02-19 14:52:00,20.0,-3.0,-100.00,SW,223,19.0,37.0,34,-99.99,,,-99.99,,2013-02-19 21:52:00,
2013-02-19 15:00:00,20.0,-2.0,-100.00,SW,218,16.0,31.0,37,-99.99,,,-99.99,,2013-02-19 22:00:00,
2013-02-19 15:42:00,20.0,-2.0,-100.00,SW,218,16.0,31.0,37,-99.99,,,-99.99,,2013-02-19 22:42:00,
2013-02-19 15:52:00,20.0,-2.0,-100.00,SW,218,16.0,31.0,37,-99.99,,,-99.99,,2013-02-19 22:52:00,
2013-02-19 16:00:00,20.0,-2.0,-100.00,SW,220,15.0,30.0,38,-99.99,,,-99.99,,2013-02-19 23:00:00,
2013-02-19 16:42:00,20.0,-2.0,-100.00,SW,220,15.0,30.0,38,-99.99,,,-99.99,,2013-02-19 23:42:00,
2013-02-19 16:52:00,20.0,-2.0,-100.00,SW,220,15.0,30.0,38,-99.99,,,-99.99,,2013-02-19 23:52:00,
2013-02-19 17:00:00,19.0,-1.0,-100.00,SW,230,13.0,26.0,41,-99.99,,,-99.99,,2013-02-20 00:00:00,
2013-02-19 17:42:00,19.0,-1.0,-100.00,SW,230,13.0,26.0,41,-99.99,,,-99.99,,2013-02-20 00:42:00,
2013-02-19 17:52:00,19.0,-1.0,-100.00,SW,230,13.0,26.0,41,-99.99,,,-99.99,,2013-02-20 00:52:00,
2013-02-19 18:00:00,18.0,-1.0,-100.00,SW,220,13.0,26.0,42,-99.99,,,-99.99,,2013-02-20 01:00:00,
2013-02-19 18:42:00,18.0,-1.0,-100.00,SW,220,13.0,26.0,42,-99.99,,,-99.99,,2013-02-20 01:42:00,
2013-02-19 18:52:00,18.0,-1.0,-100.00,SW,220,13.0,26.0,42,-99.99,,,-99.99,,2013-02-20 01:52:00,
2013-02-19 19:00:00,17.0,-1.0,-100.00,SW,222,11.0,22.0,44,-99.99,,,-99.99,,2013-02-20 02:00:00,
2013-02-19 19:42:00,17.0,-1.0,-100.00,SW,222,11.0,22.0,44,-99.99,,,-99.99,,2013-02-20 02:42:00,
2013-02-19 19:52:00,17.0,-1.0,-100.00,SW,222,11.0,22.0,44,-99.99,,,-99.99,,2013-02-20 02:52:00,
2013-02-19 20:00:00,16.0,-2.0,-100.00,WSW,237,10.0,19.0,44,-99.99,,,-99.99,,2013-02-20 03:00:00,
2013-02-19 20:42:00,16.0,-2.0,-100.00,WSW,237,10.0,19.0,44,-99.99,,,-99.99,,2013-02-20 03:42:00,
2013-02-19 20:52:00,16.0,-2.0,-100.00,WSW,237,10.0,19.0,44,-99.99,,,-99.99,,2013-02-20 03:52:00,
2013-02-19 21:00:00,16.0,-3.0,-100.00,SW,236,9.0,20.0,41,-99.99,,,-99.99,,2013-02-20 04:00:00,
2013-02-19 21:42:00,16.0,-3.0,-100.00,SW,236,9.0,20.0,41,-99.99,,,-99.99,,2013-02-20 04:42:00,
2013-02-19 21:52:00,16.0,-3.0,-100.00,SW,236,9.0,20.0,41,-99.99,,,-99.99,,2013-02-20 04:52:00,
2013-02-19 22:00:00,17.0,-3.0,-100.00,SW,230,11.0,27.0,40,-99.99,,,-99.99,,2013-02-20 05:00:00,
2013-02-19 22:43:00,17.0,-3.0,-100.00,SW,230,11.0,27.0,40,-99.99,,,-99.99,,2013-02-20 05:43:00,
2013-02-19 22:52:00,17.0,-3.0,-100.00,SW,230,11.0,27.0,40,-99.99,,,-99.99,,2013-02-20 05:52:00,
2013-02-19 23:00:00,17.0,1.0,-100.00,SW,223,12.0,31.0,49,-99.99,,,-99.99,,2013-02-20 06:00:00,
2013-02-19 23:42:00,17.0,1.0,-100.00,SW,223,12.0,31.0,49,-99.99,,,-99.99,,2013-02-20 06:42:00,
2013-02-19 23:52:00,17.0,1.0,-100.00,SW,223,12.0,31.0,49,-99.99,,,-99.99,,2013-02-20 06:52:00,